Time;durP1;ratioP1;P1;durP2;ratioP2;P2;SDS_P1;SDS_P2;PMS_P1;PMS_P2;Temp;Humidity;BMP_temperature;BMP_pressure;BME280_temperature;BME280_humidity;BME280_pressure;Samples;Min_cycle;Max_cycle;Signal;HPM_P1;HPM_P2
2022/09/13 00:02:24;;;;;;;12.57;6.80;;;;;;;;;;5135551;27;20067;-77
2022/09/13 00:04:51;;;;;;;9.98;6.38;;;;;;;;;;5124912;27;20036;-76
2022/09/13 00:07:18;;;;;;;10.82;6.45;;;;;;;;;;5135016;27;20039;-75
2022/09/13 00:09:47;;;;;;;8.80;6.78;;;;;;;;;;5145559;27;20052;-76
2022/09/13 00:12:14;;;;;;;9.30;6.22;;;;;;;;;;5134280;27;20058;-78
2022/09/13 00:14:42;;;;;;;13.68;6.85;;;;;;;;;;5149315;27;20035;-77
2022/09/13 00:17:09;;;;;;;11.93;6.95;;;;;;;;;;5130701;27;20028;-76
2022/09/13 00:19:36;;;;;;;12.10;7.53;;;;;;;;;;5140911;27;20099;-77
2022/09/13 00:22:05;;;;;;;10.77;6.80;;;;;;;;;;5133703;27;20048;-76
2022/09/13 00:24:32;;;;;;;10.80;7.00;;;;;;;;;;5129044;27;20059;-77
2022/09/13 00:27:00;;;;;;;13.45;7.10;;;;;;;;;;5130299;28;20058;-76
2022/09/13 00:29:27;;;;;;;11.88;6.40;;;;;;;;;;5133705;27;20047;-77
2022/09/13 00:31:54;;;;;;;12.45;6.90;;;;;;;;;;5129117;27;20062;-76
2022/09/13 00:34:22;;;;;;;15.13;7.05;;;;;;;;;;5138204;27;20060;-78
2022/09/13 00:36:49;;;;;;;9.93;6.95;;;;;;;;;;5133428;27;20044;-77
2022/09/13 00:39:16;;;;;;;9.43;6.85;;;;;;;;;;5140123;27;20053;-77
2022/09/13 00:41:43;;;;;;;11.95;7.50;;;;;;;;;;5130062;27;20056;-76
2022/09/13 00:44:30;;;;;;;14.88;6.85;;;;;;;;;;5125329;27;20052;-78
2022/09/13 00:46:57;;;;;;;9.45;6.95;;;;;;;;;;5125202;27;21150;-76
2022/09/13 00:49:31;;;;;;;9.50;7.15;;;;;;;;;;5128960;27;20024;-77
2022/09/13 00:52:03;;;;;;;13.88;7.07;;;;;;;;;;5123928;27;20048;-76
2022/09/13 00:54:33;;;;;;;9.45;6.88;;;;;;;;;;5123389;27;20048;-76
2022/09/13 00:57:01;;;;;;;15.10;7.55;;;;;;;;;;5135783;27;20461;-77
2022/09/13 00:59:42;;;;;;;11.82;7.00;;;;;;;;;;5120496;27;20052;-75
2022/09/13 01:02:09;;;;;;;10.07;6.68;;;;;;;;;;5145054;27;20051;-76
2022/09/13 01:04:38;;;;;;;8.73;6.38;;;;;;;;;;5124654;27;20047;-76
2022/09/13 01:07:07;;;;;;;10.25;6.88;;;;;;;;;;5128884;27;20044;-77
2022/09/13 01:09:38;;;;;;;13.27;7.25;;;;;;;;;;5131480;27;20051;-76
2022/09/13 01:12:26;;;;;;;11.02;7.13;;;;;;;;;;5145483;27;20040;-76
2022/09/13 01:14:54;;;;;;;11.88;7.10;;;;;;;;;;5129974;27;20948;-75
2022/09/13 01:17:21;;;;;;;9.20;6.75;;;;;;;;;;5126698;27;20044;-77
2022/09/13 01:19:49;;;;;;;9.15;6.28;;;;;;;;;;5132681;27;20921;-77
2022/09/13 01:22:16;;;;;;;12.18;7.22;;;;;;;;;;5133188;27;20040;-76
2022/09/13 01:25:06;;;;;;;9.20;6.60;;;;;;;;;;5142926;27;20039;-78
2022/09/13 01:27:40;;;;;;;13.70;7.32;;;;;;;;;;5122795;27;20055;-76
2022/09/13 01:30:07;;;;;;;;;;;;;;;;;;5126322;27;20205;-75
2022/09/13 01:32:57;;;;;;;10.93;6.22;;;;;;;;;;5138260;27;44407;-77
2022/09/13 01:35:34;;;;;;;16.98;6.35;;;;;;;;;;5116324;27;20050;-76
2022/09/13 01:38:07;;;;;;;9.00;5.38;;;;;;;;;;5133113;27;20052;-77
2022/09/13 01:40:48;;;;;;;11.00;5.90;;;;;;;;;;5123936;27;20103;-75
2022/09/13 01:43:27;;;;;;;9.27;5.67;;;;;;;;;;5137558;27;20055;-76
2022/09/13 01:45:57;;;;;;;7.90;5.28;;;;;;;;;;5135469;27;20071;-76
2022/09/13 01:48:40;;;;;;;8.80;4.93;;;;;;;;;;5128376;28;20063;-77
2022/09/13 01:51:11;;;;;;;8.18;5.30;;;;;;;;;;5126083;27;20093;-76
2022/09/13 01:53:38;;;;;;;7.38;5.22;;;;;;;;;;5132976;27;20099;-75
2022/09/13 01:56:12;;;;;;;10.63;5.80;;;;;;;;;;5128370;27;20048;-76
2022/09/13 01:58:42;;;;;;;10.52;7.03;;;;;;;;;;5127714;28;20029;-76
2022/09/13 02:01:17;;;;;;;9.40;6.78;;;;;;;;;;5130574;27;20056;-77
2022/09/13 02:03:44;;;;;;;12.75;7.75;;;;;;;;;;5135661;27;20055;-74
2022/09/13 02:06:13;;;;;;;10.50;7.40;;;;;;;;;;5130225;27;20936;-76
2022/09/13 02:08:43;;;;;;;15.27;7.65;;;;;;;;;;5132328;27;20093;-75
2022/09/13 02:11:12;;;;;;;12.63;7.18;;;;;;;;;;5140197;27;20047;-76
2022/09/13 02:13:45;;;;;;;13.35;8.20;;;;;;;;;;5136457;27;20040;-74
2022/09/13 02:16:12;;;;;;;;;;;;;;;;;;5138996;27;20070;-76
2022/09/13 02:18:41;;;;;;;12.30;8.05;;;;;;;;;;5150965;27;44866;-75
2022/09/13 02:21:14;;;;;;;13.00;8.23;;;;;;;;;;5133738;27;20048;-75
2022/09/13 02:23:44;;;;;;;15.90;8.50;;;;;;;;;;5141206;27;20060;-75
2022/09/13 02:26:14;;;;;;;14.80;8.13;;;;;;;;;;5127123;27;20051;-75
2022/09/13 02:28:44;;;;;;;13.07;9.38;;;;;;;;;;5143896;27;20086;-76
2022/09/13 02:31:12;;;;;;;13.43;9.52;;;;;;;;;;5138351;27;20040;-76
2022/09/13 02:33:43;;;;;;;13.00;8.18;;;;;;;;;;5130433;27;20040;-75
2022/09/13 02:36:13;;;;;;;17.77;9.02;;;;;;;;;;5136756;27;20883;-75
2022/09/13 02:38:54;;;;;;;16.05;9.82;;;;;;;;;;5138243;27;20043;-76
2022/09/13 02:41:26;;;;;;;19.20;10.13;;;;;;;;;;5125322;27;20074;-75
2022/09/13 02:43:54;;;;;;;;;;;;;;;;;;5131156;27;20461;-76
2022/09/13 02:46:24;;;;;;;19.10;9.40;;;;;;;;;;5132928;27;44055;-74
2022/09/13 02:49:06;;;;;;;11.55;8.45;;;;;;;;;;5129656;27;20036;-75
2022/09/13 02:51:45;;;;;;;14.50;9.07;;;;;;;;;;5129558;27;20044;-75
2022/09/13 02:54:23;;;;;;;16.83;9.50;;;;;;;;;;5135958;27;20082;-74
2022/09/13 02:56:53;;;;;;;15.00;9.73;;;;;;;;;;5117532;27;20066;-75
2022/09/13 02:59:23;;;;;;;15.85;10.10;;;;;;;;;;5131239;27;20051;-75
2022/09/13 03:02:02;;;;;;;20.02;10.02;;;;;;;;;;5125852;27;20051;-76
2022/09/13 03:04:30;;;;;;;17.55;10.45;;;;;;;;;;5124756;27;20107;-75
2022/09/13 03:06:57;;;;;;;12.25;8.77;;;;;;;;;;5141665;27;20051;-75
2022/09/13 03:09:24;;;;;;;16.33;10.68;;;;;;;;;;5132985;27;20039;-75
2022/09/13 03:11:57;;;;;;;14.15;9.48;;;;;;;;;;5125918;27;20066;-75
2022/09/13 03:14:37;;;;;;;14.02;9.00;;;;;;;;;;5137763;27;20051;-75
2022/09/13 03:17:19;;;;;;;13.38;9.30;;;;;;;;;;5127265;27;20051;-75
2022/09/13 03:19:54;;;;;;;16.50;10.10;;;;;;;;;;5134933;27;20049;-76
2022/09/13 03:22:24;;;;;;;14.15;9.48;;;;;;;;;;5133066;27;20052;-75
2022/09/13 03:25:10;;;;;;;17.60;10.32;;;;;;;;;;5131514;27;20028;-76
2022/09/13 03:27:43;;;;;;;17.65;11.27;;;;;;;;;;5129166;27;20032;-76
2022/09/13 03:30:12;;;;;;;12.20;8.23;;;;;;;;;;5120157;27;20036;-75
2022/09/13 03:32:39;;;;;;;17.30;10.98;;;;;;;;;;5131199;27;20048;-75
2022/09/13 03:35:25;;;;;;;14.52;9.70;;;;;;;;;;5135173;27;20075;-75
2022/09/13 03:37:52;;;;;;;17.15;10.05;;;;;;;;;;5153876;27;20056;-75
2022/09/13 03:40:32;;;;;;;13.25;8.88;;;;;;;;;;5135881;27;20063;-75
2022/09/13 03:43:10;;;;;;;12.77;9.20;;;;;;;;;;5132457;27;20052;-76
2022/09/13 03:45:40;;;;;;;14.85;10.27;;;;;;;;;;5127335;27;20144;-75
2022/09/13 03:48:09;;;;;;;15.93;10.30;;;;;;;;;;5138808;27;20036;-75
2022/09/13 03:50:37;;;;;;;15.52;8.70;;;;;;;;;;5133741;27;20036;-77
2022/09/13 03:53:07;;;;;;;18.80;9.50;;;;;;;;;;5138562;27;20048;-76
2022/09/13 03:55:38;;;;;;;13.25;8.18;;;;;;;;;;5124589;27;20051;-74
2022/09/13 03:58:06;;;;;;;16.05;9.70;;;;;;;;;;5129919;27;20059;-75
2022/09/13 04:00:33;;;;;;;16.42;9.45;;;;;;;;;;5130416;27;20105;-76
2022/09/13 04:03:00;;;;;;;17.63;9.77;;;;;;;;;;5124208;27;20056;-76
2022/09/13 04:05:27;;;;;;;14.95;9.40;;;;;;;;;;5135956;27;20750;-75
2022/09/13 04:07:54;;;;;;;13.25;8.93;;;;;;;;;;5130368;27;20037;-75
2022/09/13 04:10:23;;;;;;;14.40;9.30;;;;;;;;;;5132616;27;20048;-75
2022/09/13 04:12:50;;;;;;;13.68;9.10;;;;;;;;;;5125833;27;20082;-74
2022/09/13 04:15:17;;;;;;;14.77;10.10;;;;;;;;;;5128579;27;20044;-75
2022/09/13 04:17:44;;;;;;;19.63;9.98;;;;;;;;;;5128641;27;20036;-75
2022/09/13 04:20:11;;;;;;;16.02;9.80;;;;;;;;;;5123945;27;20036;-75
2022/09/13 04:22:39;;;;;;;12.98;8.70;;;;;;;;;;5139886;27;20047;-76
2022/09/13 04:25:06;;;;;;;15.70;10.18;;;;;;;;;;5142307;27;20089;-75
2022/09/13 04:27:34;;;;;;;18.23;9.88;;;;;;;;;;5127217;27;20032;-75
2022/09/13 04:30:01;;;;;;;15.52;9.45;;;;;;;;;;5129411;27;20055;-75
2022/09/13 04:32:28;;;;;;;16.20;9.40;;;;;;;;;;5132406;27;20143;-75
2022/09/13 04:34:56;;;;;;;19.25;10.23;;;;;;;;;;5130447;27;20046;-75
2022/09/13 04:37:23;;;;;;;12.88;9.00;;;;;;;;;;5155069;27;20047;-76
2022/09/13 04:39:50;;;;;;;13.32;9.50;;;;;;;;;;5130811;27;20058;-76
2022/09/13 04:42:18;;;;;;;13.77;9.20;;;;;;;;;;5139694;27;20052;-75
2022/09/13 04:44:48;;;;;;;13.93;9.57;;;;;;;;;;5148832;27;20040;-75
2022/09/13 04:47:16;;;;;;;16.00;9.98;;;;;;;;;;5131102;27;20060;-75
2022/09/13 04:49:43;;;;;;;15.73;10.15;;;;;;;;;;5126321;27;20044;-75
2022/09/13 04:52:10;;;;;;;20.95;8.88;;;;;;;;;;5129135;27;20048;-74
2022/09/13 04:54:37;;;;;;;13.48;9.02;;;;;;;;;;5140497;27;20031;-75
2022/09/13 04:57:05;;;;;;;14.05;8.48;;;;;;;;;;5130892;27;20040;-74
2022/09/13 04:59:32;;;;;;;13.98;8.93;;;;;;;;;;5123957;27;20028;-75
2022/09/13 05:02:00;;;;;;;14.98;9.57;;;;;;;;;;5134927;27;20048;-75
2022/09/13 05:04:27;;;;;;;14.93;8.70;;;;;;;;;;5131095;27;20058;-76
2022/09/13 05:06:54;;;;;;;13.60;9.05;;;;;;;;;;5143468;27;20040;-75
2022/09/13 05:09:21;;;;;;;14.73;8.88;;;;;;;;;;5129082;27;20054;-75
2022/09/13 05:11:48;;;;;;;13.98;8.75;;;;;;;;;;5124120;27;20044;-76
2022/09/13 05:14:15;;;;;;;14.32;9.18;;;;;;;;;;5132759;27;20042;-77
2022/09/13 05:16:43;;;;;;;15.80;9.63;;;;;;;;;;5127892;27;20060;-75
2022/09/13 05:19:12;;;;;;;17.55;10.68;;;;;;;;;;5138598;27;20050;-75
2022/09/13 05:21:39;;;;;;;15.35;10.07;;;;;;;;;;5135357;27;20055;-76
2022/09/13 05:24:06;;;;;;;15.07;10.00;;;;;;;;;;5137610;27;20056;-75
2022/09/13 05:26:33;;;;;;;22.92;11.48;;;;;;;;;;5139679;27;20035;-76
2022/09/13 05:29:00;;;;;;;19.95;11.05;;;;;;;;;;5050249;27;20021;-77
2022/09/13 05:31:32;;;;;;;16.50;10.65;;;;;;;;;;5073355;28;20136;-75
2022/09/13 05:34:10;;;;;;;16.03;10.30;;;;;;;;;;5069631;28;20057;-75
2022/09/13 05:36:38;;;;;;;18.67;10.80;;;;;;;;;;5070115;28;20065;-76
2022/09/13 05:39:05;;;;;;;16.40;9.77;;;;;;;;;;5068477;28;20033;-76
2022/09/13 05:41:52;;;;;;;16.30;9.95;;;;;;;;;;5071462;28;20049;-74
2022/09/13 05:44:20;;;;;;;14.73;9.50;;;;;;;;;;5072171;28;20071;-75
2022/09/13 05:46:47;;;;;;;20.35;10.65;;;;;;;;;;5066680;28;20568;-76
2022/09/13 05:49:15;;;;;;;15.43;9.77;;;;;;;;;;5082644;28;20080;-76
2022/09/13 05:51:43;;;;;;;15.45;9.77;;;;;;;;;;5072824;28;20045;-75
2022/09/13 05:54:11;;;;;;;17.23;9.93;;;;;;;;;;5069716;28;20050;-76
2022/09/13 05:56:38;;;;;;;18.95;10.07;;;;;;;;;;5079248;28;20034;-77
2022/09/13 05:59:06;;;;;;;19.02;11.85;;;;;;;;;;5068642;28;20029;-76
2022/09/13 06:01:34;;;;;;;16.20;9.93;;;;;;;;;;5079483;28;20037;-76
2022/09/13 06:04:02;;;;;;;16.77;10.02;;;;;;;;;;5068831;28;20045;-77
2022/09/13 06:06:29;;;;;;;13.20;8.50;;;;;;;;;;5075586;28;20049;-77
2022/09/13 06:09:01;;;;;;;18.38;10.82;;;;;;;;;;5071514;28;20041;-77
2022/09/13 06:11:29;;;;;;;24.85;12.95;;;;;;;;;;5072875;28;20105;-77
2022/09/13 06:13:56;;;;;;;20.17;12.15;;;;;;;;;;5075078;28;20038;-77
2022/09/13 06:16:24;;;;;;;23.65;13.40;;;;;;;;;;5075055;28;20065;-76
2022/09/13 06:18:51;;;;;;;24.25;12.55;;;;;;;;;;5075378;28;20130;-77
2022/09/13 06:21:21;;;;;;;24.63;13.38;;;;;;;;;;5071747;28;20040;-77
2022/09/13 06:23:55;;;;;;;24.23;12.80;;;;;;;;;;5071784;28;20053;-77
2022/09/13 06:26:24;;;;;;;27.27;13.52;;;;;;;;;;5071982;28;20075;-78
2022/09/13 06:28:53;;;;;;;27.10;14.63;;;;;;;;;;5075196;28;20018;-79
2022/09/13 06:31:22;;;;;;;23.58;14.20;;;;;;;;;;5069659;28;20025;-76
2022/09/13 06:33:56;;;;;;;24.13;15.38;;;;;;;;;;5077264;28;20033;-76
2022/09/13 06:36:24;;;;;;;28.55;15.55;;;;;;;;;;5071050;28;20030;-75
2022/09/13 06:38:59;;;;;;;29.27;16.63;;;;;;;;;;5071868;28;20046;-78
2022/09/13 06:41:27;;;;;;;28.05;16.95;;;;;;;;;;5072861;28;20112;-78
2022/09/13 06:43:57;;;;;;;31.48;15.48;;;;;;;;;;5071949;28;20042;-78
2022/09/13 06:46:28;;;;;;;28.13;16.60;;;;;;;;;;5073510;28;20042;-77
2022/09/13 06:49:00;;;;;;;29.23;16.33;;;;;;;;;;5064488;28;20038;-78
2022/09/13 06:51:28;;;;;;;27.65;16.58;;;;;;;;;;5077224;28;20052;-77
2022/09/13 06:53:56;;;;;;;30.15;16.42;;;;;;;;;;5074621;28;20045;-76
2022/09/13 06:56:25;;;;;;;25.25;15.65;;;;;;;;;;5075454;28;20044;-77
2022/09/13 06:58:58;;;;;;;26.90;16.80;;;;;;;;;;5082418;28;20059;-79
2022/09/13 07:01:32;;;;;;;31.02;17.17;;;;;;;;;;5072253;28;20057;-78
2022/09/13 07:04:00;;;;;;;28.58;17.00;;;;;;;;;;5077434;28;20049;-77
2022/09/13 07:06:29;;;;;;;44.58;17.45;;;;;;;;;;5080131;28;20069;-78
2022/09/13 07:08:58;;;;;;;33.15;17.50;;;;;;;;;;5070789;28;20018;-78
2022/09/13 07:11:26;;;;;;;33.28;18.25;;;;;;;;;;5073703;28;20038;-79
2022/09/13 07:13:54;;;;;;;35.45;18.95;;;;;;;;;;5075318;28;20038;-77
2022/09/13 07:16:23;;;;;;;35.97;19.13;;;;;;;;;;5077583;28;20057;-79
2022/09/13 07:18:53;;;;;;;31.15;18.10;;;;;;;;;;5077215;28;20065;-78
2022/09/13 07:21:23;;;;;;;30.13;18.75;;;;;;;;;;5078453;28;20045;-78
2022/09/13 07:23:54;;;;;;;31.52;19.27;;;;;;;;;;5084692;28;20037;-78
2022/09/13 07:26:21;;;;;;;31.13;18.52;;;;;;;;;;5082855;28;20038;-78
2022/09/13 07:28:49;;;;;;;31.27;18.90;;;;;;;;;;5080264;28;20052;-78
2022/09/13 07:31:19;;;;;;;32.15;18.13;;;;;;;;;;5080511;28;20041;-78
2022/09/13 07:33:52;;;;;;;28.15;17.45;;;;;;;;;;5079020;28;20044;-78
2022/09/13 07:36:20;;;;;;;25.40;16.33;;;;;;;;;;5073231;28;20045;-77
2022/09/13 07:38:47;;;;;;;25.33;16.17;;;;;;;;;;5076296;28;20045;-77
2022/09/13 07:41:15;;;;;;;29.23;16.88;;;;;;;;;;5080801;28;20064;-77
2022/09/13 07:43:45;;;;;;;28.25;16.65;;;;;;;;;;5080073;28;20042;-77
2022/09/13 07:46:12;;;;;;;25.85;15.68;;;;;;;;;;5080178;28;20039;-76
2022/09/13 07:48:43;;;;;;;25.90;16.20;;;;;;;;;;5077755;28;20044;-77
2022/09/13 07:51:16;;;;;;;22.95;14.30;;;;;;;;;;5093487;28;20056;-77
2022/09/13 07:53:46;;;;;;;22.73;12.15;;;;;;;;;;5074766;28;20038;-77
2022/09/13 07:56:14;;;;;;;21.95;12.85;;;;;;;;;;5083716;28;20041;-77
2022/09/13 07:58:43;;;;;;;19.58;11.05;;;;;;;;;;5080043;28;20041;-76
2022/09/13 08:01:15;;;;;;;17.42;10.25;;;;;;;;;;5068471;28;20516;-76
2022/09/13 08:03:45;;;;;;;16.15;9.02;;;;;;;;;;5076757;28;20057;-77
2022/09/13 08:06:12;;;;;;;11.80;7.30;;;;;;;;;;5079710;28;20073;-76
2022/09/13 08:08:42;;;;;;;12.02;7.00;;;;;;;;;;5080102;28;20108;-77
2022/09/13 08:11:19;;;;;;;11.70;7.28;;;;;;;;;;5076644;28;20071;-77
2022/09/13 08:13:55;;;;;;;11.75;6.18;;;;;;;;;;5067463;28;20033;-78
2022/09/13 08:16:25;;;;;;;;;;;;;;;;;;5082213;28;20029;-78
2022/09/13 08:18:54;;;;;;;10.32;5.75;;;;;;;;;;5077015;28;44856;-77
2022/09/13 08:21:21;;;;;;;9.65;5.32;;;;;;;;;;5087166;28;20038;-78
2022/09/13 08:23:53;;;;;;;12.02;5.38;;;;;;;;;;5080751;28;20072;-77
2022/09/13 08:26:20;;;;;;;8.00;5.07;;;;;;;;;;5086561;28;20033;-77
2022/09/13 08:28:55;;;;;;;9.45;5.28;;;;;;;;;;5081739;28;20068;-78
2022/09/13 08:31:22;;;;;;;8.93;4.65;;;;;;;;;;5079389;28;20069;-78
2022/09/13 08:33:49;;;;;;;10.63;5.18;;;;;;;;;;5073883;28;20048;-77
2022/09/13 08:36:25;;;;;;;11.30;4.63;;;;;;;;;;5079566;28;20064;-77
2022/09/13 08:38:57;;;;;;;7.40;3.75;;;;;;;;;;5071685;28;20033;-76
2022/09/13 08:41:44;;;;;;;9.07;3.72;;;;;;;;;;5076615;28;20047;-77
2022/09/13 08:44:17;;;;;;;9.82;4.35;;;;;;;;;;5070104;28;20041;-78
2022/09/13 08:46:45;;;;;;;7.28;4.60;;;;;;;;;;5082054;28;20021;-77
2022/09/13 08:49:19;;;;;;;10.50;4.47;;;;;;;;;;5068733;28;20036;-77
2022/09/13 08:51:53;;;;;;;8.55;4.38;;;;;;;;;;5080009;28;20108;-76
2022/09/13 08:54:21;;;;;;;5.10;3.10;;;;;;;;;;5074917;28;20046;-77
2022/09/13 08:56:57;;;;;;;7.28;3.50;;;;;;;;;;5084873;28;20072;-76
2022/09/13 08:59:43;;;;;;;5.20;3.25;;;;;;;;;;5086495;28;20096;-77
2022/09/13 09:02:19;;;;;;;6.13;3.00;;;;;;;;;;5074729;28;20041;-76
2022/09/13 09:04:50;;;;;;;6.53;2.92;;;;;;;;;;5079823;28;20034;-78
2022/09/13 09:07:19;;;;;;;4.88;2.70;;;;;;;;;;5073812;28;20041;-77
2022/09/13 09:09:53;;;;;;;5.85;2.78;;;;;;;;;;5071274;28;20029;-76
2022/09/13 09:12:42;;;;;;;5.25;2.70;;;;;;;;;;5076141;28;20060;-76
2022/09/13 09:15:19;;;;;;;4.97;2.10;;;;;;;;;;5076876;28;20041;-75
2022/09/13 09:17:59;;;;;;;5.05;2.70;;;;;;;;;;5073763;28;20048;-77
2022/09/13 09:20:31;;;;;;;5.70;2.75;;;;;;;;;;5078546;28;20068;-77
2022/09/13 09:23:01;;;;;;;4.00;2.13;;;;;;;;;;5070247;28;20041;-77
2022/09/13 09:25:28;;;;;;;5.32;2.20;;;;;;;;;;5075865;28;20041;-75
2022/09/13 09:27:55;;;;;;;3.83;2.20;;;;;;;;;;5074937;28;20044;-76
2022/09/13 09:30:37;;;;;;;3.70;2.10;;;;;;;;;;5080153;28;20013;-78
2022/09/13 09:33:11;;;;;;;5.40;1.90;;;;;;;;;;5069545;28;20054;-77
2022/09/13 09:35:57;;;;;;;6.00;2.00;;;;;;;;;;5076005;28;20065;-76
2022/09/13 09:38:36;;;;;;;3.38;1.75;;;;;;;;;;5083332;28;20044;-77
2022/09/13 09:41:25;;;;;;;1.77;1.42;;;;;;;;;;5082537;28;20017;-77
2022/09/13 09:44:02;;;;;;;2.85;1.45;;;;;;;;;;5077749;28;20045;-77
2022/09/13 09:46:34;;;;;;;2.28;1.42;;;;;;;;;;5069752;28;20101;-77
2022/09/13 09:50:07;;;;;;;2.93;1.30;;;;;;;;;;5077698;28;20045;-77
2022/09/13 09:51:59;;;;;;;3.22;1.30;;;;;;;;;;5078051;28;20259;-76
2022/09/13 09:54:30;;;;;;;2.65;1.33;;;;;;;;;;5082073;28;20041;-76
2022/09/13 09:57:01;;;;;;;6.37;1.57;;;;;;;;;;5093014;28;20056;-76
2022/09/13 09:59:32;;;;;;;9.30;1.70;;;;;;;;;;5073374;28;20931;-77
2022/09/13 10:02:00;;;;;;;3.35;1.40;;;;;;;;;;5078912;28;20094;-76
2022/09/13 10:04:28;;;;;;;4.93;1.48;;;;;;;;;;5070182;28;20034;-76
2022/09/13 10:07:17;;;;;;;5.18;1.48;;;;;;;;;;5077925;28;20026;-77
2022/09/13 10:10:03;;;;;;;9.25;1.27;;;;;;;;;;5080509;28;20580;-77
2022/09/13 10:12:32;;;;;;;3.15;1.30;;;;;;;;;;5073414;28;20430;-77
2022/09/13 10:15:07;;;;;;;7.78;1.40;;;;;;;;;;5079186;28;20045;-77
2022/09/13 10:17:35;;;;;;;6.97;1.40;;;;;;;;;;5085248;28;20036;-77
2022/09/13 10:20:18;;;;;;;2.50;1.15;;;;;;;;;;5068900;28;20042;-77
2022/09/13 10:22:46;;;;;;;;;;;;;;;;;;5076271;28;20014;-77
2022/09/13 10:25:24;;;;;;;2.63;1.30;;;;;;;;;;5082928;28;44686;-75
2022/09/13 10:27:53;;;;;;;1.98;1.00;;;;;;;;;;5077799;28;20026;-77
2022/09/13 10:30:39;;;;;;;4.15;1.17;;;;;;;;;;5065355;28;20050;-76
2022/09/13 10:33:07;;;;;;;2.75;1.10;;;;;;;;;;5079290;28;20049;-75
2022/09/13 10:35:35;;;;;;;2.13;0.90;;;;;;;;;;5075931;28;20133;-77
2022/09/13 10:38:03;;;;;;;5.88;1.10;;;;;;;;;;5075314;28;20061;-77
2022/09/13 10:40:37;;;;;;;1.98;1.02;;;;;;;;;;5081408;28;20059;-77
2022/09/13 10:43:14;;;;;;;2.78;1.10;;;;;;;;;;5081103;28;20083;-76
2022/09/13 10:45:41;;;;;;;2.55;1.38;;;;;;;;;;5089464;28;20053;-77
2022/09/13 10:48:13;;;;;;;4.78;1.20;;;;;;;;;;5078926;28;20140;-77
2022/09/13 10:50:40;;;;;;;3.30;1.00;;;;;;;;;;5082295;28;20077;-76
2022/09/13 10:53:28;;;;;;;2.42;1.10;;;;;;;;;;5075536;28;20026;-74
2022/09/13 10:55:55;;;;;;;6.43;1.60;;;;;;;;;;5072278;28;20104;-75
2022/09/13 10:58:22;;;;;;;3.28;1.33;;;;;;;;;;5072589;28;20041;-75
2022/09/13 11:00:59;;;;;;;2.97;1.35;;;;;;;;;;5074271;28;20022;-76
2022/09/13 11:03:27;;;;;;;3.90;1.65;;;;;;;;;;5083989;28;20033;-76
2022/09/13 11:05:54;;;;;;;3.88;1.42;;;;;;;;;;5081210;28;20052;-76
2022/09/13 11:08:26;;;;;;;5.75;1.40;;;;;;;;;;5077825;28;20045;-76
2022/09/13 11:11:02;;;;;;;5.63;1.42;;;;;;;;;;5073837;28;20909;-76
2022/09/13 11:13:42;;;;;;;3.28;1.30;;;;;;;;;;5077101;28;20036;-74
2022/09/13 11:16:32;;;;;;;6.70;1.50;;;;;;;;;;5070577;28;20060;-77
2022/09/13 11:19:20;;;;;;;5.80;1.52;;;;;;;;;;5069377;28;20049;-75
2022/09/13 11:22:06;;;;;;;3.42;1.50;;;;;;;;;;5073316;28;20041;-76
2022/09/13 11:24:54;;;;;;;2.97;1.40;;;;;;;;;;5073256;28;20113;-75
2022/09/13 11:27:32;;;;;;;4.50;1.42;;;;;;;;;;5074423;28;20056;-76
2022/09/13 11:30:11;;;;;;;3.22;1.10;;;;;;;;;;5068583;28;20045;-76
2022/09/13 11:32:59;;;;;;;4.85;1.25;;;;;;;;;;5074600;28;20041;-74
2022/09/13 11:35:27;;;;;;;4.18;1.20;;;;;;;;;;5081700;28;20032;-76
2022/09/13 11:37:57;;;;;;;3.47;1.27;;;;;;;;;;5078990;28;20037;-77
2022/09/13 11:40:35;;;;;;;6.70;1.30;;;;;;;;;;5079244;28;20033;-75
2022/09/13 11:43:16;;;;;;;3.63;1.30;;;;;;;;;;5080390;28;20076;-76
2022/09/13 11:45:48;;;;;;;3.72;1.30;;;;;;;;;;5076338;28;20056;-76
2022/09/13 11:48:25;;;;;;;3.08;1.30;;;;;;;;;;5074486;28;20089;-77
2022/09/13 11:50:55;;;;;;;2.00;1.20;;;;;;;;;;5085658;28;20187;-76
2022/09/13 11:53:51;;;;;;;2.95;1.23;;;;;;;;;;5076130;28;20045;-77
2022/09/13 11:56:25;;;;;;;6.32;1.20;;;;;;;;;;5071531;28;20028;-75
2022/09/13 11:58:56;;;;;;;3.17;1.20;;;;;;;;;;5073679;28;20049;-76
2022/09/13 12:01:28;;;;;;;3.58;1.30;;;;;;;;;;5072177;28;20046;-76
2022/09/13 12:04:04;;;;;;;4.45;1.17;;;;;;;;;;5070261;28;20044;-76
2022/09/13 12:06:31;;;;;;;;;;;;;;;;;;5070440;28;20097;-77
2022/09/13 12:09:04;;;;;;;5.68;1.65;;;;;;;;;;5076295;28;44594;-76
2022/09/13 12:11:34;;;;;;;2.50;1.33;;;;;;;;;;5084279;28;20026;-75
2022/09/13 12:14:12;;;;;;;4.75;1.40;;;;;;;;;;5090270;28;20049;-77
2022/09/13 12:16:42;;;;;;;2.10;1.08;;;;;;;;;;5079793;28;20064;-76
2022/09/13 12:19:16;;;;;;;3.75;1.20;;;;;;;;;;5073183;28;20045;-76
2022/09/13 12:21:44;;;;;;;3.00;1.52;;;;;;;;;;5072744;28;20040;-76
2022/09/13 12:24:29;;;;;;;2.97;1.20;;;;;;;;;;5082249;28;20072;-76
2022/09/13 12:27:04;;;;;;;3.80;1.00;;;;;;;;;;5066425;28;20029;-76
2022/09/13 12:29:39;;;;;;;4.93;1.13;;;;;;;;;;5069985;28;20068;-76
2022/09/13 12:32:09;;;;;;;6.93;1.33;;;;;;;;;;5075020;28;20064;-76
2022/09/13 12:34:39;;;;;;;2.17;1.40;;;;;;;;;;5071872;28;20108;-75
2022/09/13 12:37:25;;;;;;;4.63;1.40;;;;;;;;;;5069374;28;20045;-76
2022/09/13 12:39:52;;;;;;;1.80;1.05;;;;;;;;;;5074828;28;20083;-76
2022/09/13 12:42:29;;;;;;;2.25;1.00;;;;;;;;;;5083924;28;20117;-75
2022/09/13 12:44:58;;;;;;;6.07;1.30;;;;;;;;;;5068837;28;20123;-74
2022/09/13 12:47:40;;;;;;;2.30;1.15;;;;;;;;;;5079626;28;20038;-74
2022/09/13 12:50:26;;;;;;;3.13;1.13;;;;;;;;;;5072500;28;20068;-75
2022/09/13 12:53:29;;;;;;;5.95;1.25;;;;;;;;;;5072196;28;20073;-76
2022/09/13 12:55:56;;;;;;;5.68;1.17;;;;;;;;;;5070154;28;20045;-77
2022/09/13 12:58:26;;;;;;;3.50;1.13;;;;;;;;;;5068811;28;20038;-76
2022/09/13 13:01:00;;;;;;;3.22;1.27;;;;;;;;;;5071009;28;20072;-75
2022/09/13 13:03:29;;;;;;;3.45;1.10;;;;;;;;;;5073355;28;20068;-76
2022/09/13 13:06:07;;;;;;;7.35;1.23;;;;;;;;;;5071134;28;20029;-76
2022/09/13 13:08:34;;;;;;;5.68;1.17;;;;;;;;;;5068513;28;20014;-76
2022/09/13 13:11:12;;;;;;;6.10;1.25;;;;;;;;;;5069539;28;20052;-74
2022/09/13 13:13:44;;;;;;;2.13;1.00;;;;;;;;;;5067996;28;20076;-76
2022/09/13 13:16:23;;;;;;;2.75;1.17;;;;;;;;;;5076805;28;20049;-76
2022/09/13 13:18:51;;;;;;;5.25;1.17;;;;;;;;;;5069079;28;20371;-75
2022/09/13 13:21:30;;;;;;;2.85;1.08;;;;;;;;;;5076524;28;20059;-76
2022/09/13 13:24:15;;;;;;;4.43;1.05;;;;;;;;;;5073792;28;20053;-76
2022/09/13 13:26:43;;;;;;;1.35;0.90;;;;;;;;;;5068413;28;20046;-77
2022/09/13 13:29:19;;;;;;;3.80;1.20;;;;;;;;;;5085666;28;20099;-74
2022/09/13 13:32:02;;;;;;;2.85;1.00;;;;;;;;;;5072431;28;20041;-75
2022/09/13 13:34:44;;;;;;;2.08;1.00;;;;;;;;;;5079947;28;20054;-77
2022/09/13 13:37:11;;;;;;;4.13;0.80;;;;;;;;;;5071165;28;20057;-76
2022/09/13 13:39:42;;;;;;;3.70;1.20;;;;;;;;;;5067393;28;20021;-74
2022/09/13 13:42:24;;;;;;;5.30;1.15;;;;;;;;;;5066609;28;20049;-75
2022/09/13 13:44:54;;;;;;;7.85;1.02;;;;;;;;;;5062258;28;20108;-75
2022/09/13 13:47:22;;;;;;;4.40;1.08;;;;;;;;;;5067404;28;20045;-75
2022/09/13 13:49:53;;;;;;;2.88;1.05;;;;;;;;;;5072299;28;20061;-74
2022/09/13 13:52:23;;;;;;;4.80;1.10;;;;;;;;;;5064949;28;20104;-75
2022/09/13 13:54:57;;;;;;;2.50;1.00;;;;;;;;;;5063760;28;20057;-74
2022/09/13 13:57:30;;;;;;;4.47;1.08;;;;;;;;;;5067173;28;20061;-75
2022/09/13 13:59:58;;;;;;;;;;;;;;;;;;5061111;28;20025;-75
2022/09/13 14:02:40;;;;;;;3.20;1.00;;;;;;;;;;5062817;28;44716;-74
2022/09/13 14:05:13;;;;;;;1.60;0.90;;;;;;;;;;5062918;28;20132;-75
2022/09/13 14:07:59;;;;;;;5.20;0.93;;;;;;;;;;5067151;28;20151;-76
2022/09/13 14:10:53;;;;;;;9.60;1.10;;;;;;;;;;5064940;28;20038;-76
2022/09/13 14:13:38;;;;;;;4.32;1.30;;;;;;;;;;5064738;28;20041;-75
2022/09/13 14:16:10;;;;;;;5.70;1.10;;;;;;;;;;5063603;28;20083;-75
2022/09/13 14:18:55;;;;;;;1.70;0.85;;;;;;;;;;5065792;28;20046;-76
2022/09/13 14:21:23;;;;;;;5.13;1.17;;;;;;;;;;5069171;28;20049;-74
2022/09/13 14:23:52;;;;;;;2.30;1.02;;;;;;;;;;5058105;28;20104;-75
2022/09/13 14:26:20;;;;;;;2.15;1.10;;;;;;;;;;5060866;28;20053;-73
2022/09/13 14:28:47;;;;;;;3.20;1.00;;;;;;;;;;5058886;28;20049;-75
2022/09/13 14:31:17;;;;;;;1.88;0.88;;;;;;;;;;5061056;28;20029;-75
2022/09/13 14:33:44;;;;;;;3.97;1.20;;;;;;;;;;5070132;28;20119;-75
2022/09/13 14:36:21;;;;;;;3.00;0.90;;;;;;;;;;5062471;28;20049;-75
2022/09/13 14:38:50;;;;;;;6.30;1.00;;;;;;;;;;5061039;28;20101;-74
2022/09/13 14:41:22;;;;;;;6.03;1.17;;;;;;;;;;5059819;28;20099;-74
2022/09/13 14:43:49;;;;;;;5.65;1.13;;;;;;;;;;5056909;28;20038;-74
2022/09/13 14:46:26;;;;;;;3.80;1.00;;;;;;;;;;5062381;28;20108;-74
2022/09/13 14:48:59;;;;;;;5.25;1.02;;;;;;;;;;5057567;28;20048;-75
2022/09/13 14:51:39;;;;;;;4.75;1.10;;;;;;;;;;5058241;28;20037;-75
2022/09/13 14:54:10;;;;;;;2.55;0.77;;;;;;;;;;5060741;28;20057;-75
2022/09/13 14:56:41;;;;;;;4.28;1.20;;;;;;;;;;5059702;28;20041;-75
2022/09/13 14:59:13;;;;;;;1.42;0.80;;;;;;;;;;5061220;28;20050;-76
2022/09/13 15:01:40;;;;;;;4.10;0.88;;;;;;;;;;5065967;28;20045;-76
2022/09/13 15:04:08;;;;;;;4.07;1.00;;;;;;;;;;5061612;28;20153;-75
2022/09/13 15:06:40;;;;;;;4.93;0.90;;;;;;;;;;5064163;28;20068;-74